createdAt,value
2022-10-06T00:05:11.033Z,97.30
2022-10-06T00:07:39.586Z,97.40
2022-10-06T00:10:10.688Z,97.30
2022-10-06T00:12:50.091Z,97.40
2022-10-06T00:56:32.563Z,98.00
2022-10-06T01:05:30.197Z,98.40
2022-10-06T01:07:58.666Z,98.20
2022-10-06T01:10:27.950Z,98.40
2022-10-06T01:12:57.662Z,98.80
2022-10-06T01:24:52.792Z,99.30
2022-10-06T01:27:23.707Z,99.40
2022-10-06T01:29:54.916Z,99.30
2022-10-06T01:48:06.812Z,99.50
2022-10-06T01:50:35.424Z,99.30
2022-10-06T02:12:24.535Z,99.50
2022-10-06T02:14:53.268Z,99.30
2022-10-06T02:20:35.371Z,99.50
2022-10-06T02:23:04.838Z,99.30
2022-10-06T02:31:43.093Z,99.50
2022-10-06T02:50:05.761Z,98.80
2022-10-06T02:52:36.414Z,98.30
2022-10-06T02:55:07.918Z,98.00
2022-10-06T03:03:57.019Z,97.30
2022-10-06T03:12:52.601Z,96.90
2022-10-06T03:15:21.799Z,96.80
2022-10-06T03:17:50.540Z,96.30
2022-10-06T03:45:40.276Z,95.60
2022-10-06T03:48:12.185Z,94.70
2022-10-06T03:50:41.267Z,95.00
2022-10-06T03:53:09.341Z,94.80
2022-10-06T03:55:41.681Z,94.40
2022-10-06T03:58:21.590Z,95.00
2022-10-06T04:00:50.510Z,94.60
2022-10-06T04:09:32.729Z,94.60
2022-10-06T04:12:02.018Z,94.20
2022-10-06T04:14:31.506Z,94.40
2022-10-06T04:16:59.302Z,94.20
2022-10-06T04:19:35.611Z,94.30
2022-10-06T04:22:03.830Z,94.10
2022-10-06T04:24:32.045Z,93.90
2022-10-06T04:27:19.306Z,93.90
2022-10-06T04:29:59.093Z,94.00
2022-10-06T04:32:27.297Z,93.90
2022-10-06T04:34:54.835Z,94.00
2022-10-06T04:37:24.679Z,93.90
2022-10-06T04:39:52.181Z,93.90
2022-10-06T04:42:19.633Z,93.70
2022-10-06T04:44:46.911Z,93.80
2022-10-06T04:47:14.518Z,93.70
2022-10-06T04:49:42.122Z,93.60
2022-10-06T04:52:10.516Z,93.30
2022-10-06T04:54:39.544Z,93.00
2022-10-06T05:03:49.990Z,93.00
2022-10-06T05:06:27.795Z,92.80
2022-10-06T05:09:02.752Z,92.50
2022-10-06T05:11:31.848Z,92.40
2022-10-06T05:14:00.842Z,92.20
2022-10-06T05:16:32.101Z,92.00
2022-10-06T05:19:00.854Z,92.20
2022-10-06T05:21:30.781Z,92.10
2022-10-06T05:23:59.810Z,92.10
2022-10-06T05:26:30.955Z,91.70
2022-10-06T05:29:00.233Z,91.60
2022-10-06T05:31:41.306Z,91.20
2022-10-06T05:34:09.388Z,91.10
2022-10-06T05:36:37.385Z,90.90
2022-10-06T05:39:07.902Z,90.80
2022-10-06T05:41:45.560Z,90.70
2022-10-06T05:44:14.794Z,90.70
2022-10-06T05:46:44.645Z,90.90
2022-10-06T05:49:13.562Z,90.70
2022-10-06T05:51:49.199Z,90.80
2022-10-06T05:54:26.585Z,91.00
2022-10-06T05:56:54.322Z,90.80
2022-10-06T05:59:22.444Z,90.50
2022-10-06T06:01:50.761Z,90.40
2022-10-06T06:04:41.166Z,90.40
2022-10-06T06:07:09.365Z,90.40
2022-10-06T06:09:37.909Z,90.60
2022-10-06T06:12:05.614Z,90.30
2022-10-06T06:15:21.110Z,90.30
2022-10-06T06:17:55.422Z,90.10
2022-10-06T06:20:23.225Z,90.00
2022-10-06T06:22:54.575Z,90.20
2022-10-06T06:25:26.057Z,90.10
2022-10-06T06:27:55.458Z,90.00
2022-10-06T06:30:24.253Z,89.90
2022-10-06T06:32:56.214Z,89.80
2022-10-06T06:35:23.513Z,89.90
2022-10-06T06:37:51.036Z,89.80
2022-10-06T06:40:18.450Z,90.00
2022-10-06T06:42:52.926Z,90.00
2022-10-06T06:45:40.224Z,90.10
2022-10-06T06:48:23.202Z,90.30
2022-10-06T06:51:00.910Z,90.30
2022-10-06T06:53:31.974Z,90.20
2022-10-06T06:56:01.541Z,90.30
2022-10-06T06:58:33.072Z,90.40
2022-10-06T07:01:10.723Z,90.30
2022-10-06T07:06:33.230Z,90.00
2022-10-06T07:09:03.581Z,89.80
2022-10-06T07:11:33.932Z,89.70
2022-10-06T07:47:06.218Z,87.90
2022-10-06T07:49:59.454Z,85.80
2022-10-06T07:52:30.930Z,85.10
2022-10-06T07:55:06.682Z,83.60
2022-10-06T07:57:58.145Z,82.80
2022-10-06T08:00:27.170Z,81.90
2022-10-06T08:03:05.407Z,79.90
2022-10-06T08:05:34.088Z,80.20
2022-10-06T08:08:02.065Z,79.40
2022-10-06T08:10:30.479Z,78.70
2022-10-06T08:13:08.809Z,77.40
2022-10-06T08:15:38.882Z,77.20
2022-10-06T08:18:21.343Z,76.60
2022-10-06T08:20:55.416Z,74.60
2022-10-06T08:23:22.807Z,72.90
2022-10-06T08:25:52.750Z,72.30
2022-10-06T08:28:22.509Z,73.90
2022-10-06T08:30:52.327Z,70.20
2022-10-06T08:33:21.544Z,69.20
2022-10-06T08:35:49.109Z,69.40
2022-10-06T08:38:16.447Z,70.30
2022-10-06T08:40:46.397Z,67.70
2022-10-06T08:43:20.067Z,66.90
2022-10-06T08:45:48.051Z,68.10
2022-10-06T08:48:24.189Z,64.40
2022-10-06T08:51:18.695Z,64.90
2022-10-06T08:53:56.439Z,66.00
2022-10-06T08:56:45.170Z,63.30
2022-10-06T08:59:12.557Z,62.10
2022-10-06T09:01:47.702Z,61.40
2022-10-06T09:04:30.853Z,61.80
2022-10-06T09:07:05.501Z,61.50
2022-10-06T09:10:16.295Z,60.80
2022-10-06T09:12:57.615Z,62.30
2022-10-06T09:15:44.782Z,59.10
2022-10-06T09:18:15.790Z,58.30
2022-10-06T09:20:54.028Z,59.00
2022-10-06T09:23:41.657Z,58.70
2022-10-06T09:26:12.594Z,57.10
2022-10-06T09:28:40.212Z,56.10
2022-10-06T09:31:39.319Z,56.00
2022-10-06T09:34:37.435Z,58.30
2022-10-06T09:37:09.095Z,58.10
2022-10-06T09:39:39.210Z,54.90
2022-10-06T09:42:15.269Z,55.10
2022-10-06T09:44:59.357Z,55.40
2022-10-06T09:47:36.721Z,54.50
2022-10-06T09:50:15.178Z,55.30
2022-10-06T09:52:47.413Z,54.40
2022-10-06T09:55:18.441Z,51.90
2022-10-06T09:57:55.826Z,53.80
2022-10-06T10:00:35.835Z,53.50
2022-10-06T10:03:07.908Z,56.20
2022-10-06T10:05:38.056Z,53.00
2022-10-06T10:08:19.069Z,54.10
2022-10-06T10:10:46.684Z,55.50
2022-10-06T10:13:24.098Z,54.70
2022-10-06T10:15:58.666Z,54.50
2022-10-06T10:18:28.867Z,54.70
2022-10-06T10:21:08.309Z,56.00
2022-10-06T10:23:43.160Z,57.10
2022-10-06T10:26:35.779Z,56.70
2022-10-06T10:29:44.659Z,58.00
2022-10-06T10:32:39.737Z,57.80
2022-10-06T10:35:27.388Z,56.90
2022-10-06T10:38:15.154Z,55.50
2022-10-06T10:40:48.926Z,56.30
2022-10-06T10:43:35.989Z,56.20
2022-10-06T10:46:22.413Z,57.00
2022-10-06T10:49:12.197Z,56.20
2022-10-06T10:52:20.957Z,56.80
2022-10-06T10:55:39.115Z,56.90
2022-10-06T10:58:26.192Z,57.00
2022-10-06T11:01:05.301Z,55.20
2022-10-06T11:03:32.866Z,54.50
2022-10-06T11:06:11.094Z,55.80
2022-10-06T11:08:51.897Z,57.10
2022-10-06T11:11:52.332Z,55.70
2022-10-06T11:14:40.102Z,54.70
2022-10-06T11:17:14.028Z,55.90
2022-10-06T11:20:08.693Z,55.90
2022-10-06T11:22:44.463Z,55.00
2022-10-06T11:25:38.192Z,56.70
2022-10-06T11:28:19.753Z,56.60
2022-10-06T11:31:12.527Z,56.30
2022-10-06T11:33:53.275Z,56.00
2022-10-06T11:36:36.929Z,56.70
2022-10-06T11:39:23.972Z,56.50
2022-10-06T11:42:04.087Z,56.30
2022-10-06T11:44:39.072Z,56.20
2022-10-06T11:47:16.226Z,56.60
2022-10-06T11:49:54.642Z,56.10
2022-10-06T11:52:22.402Z,54.90
2022-10-06T11:55:08.465Z,53.40
2022-10-06T11:58:12.689Z,55.00
2022-10-06T12:00:54.517Z,56.10
2022-10-06T12:03:31.166Z,56.10
2022-10-06T12:05:58.667Z,57.40
2022-10-06T12:08:36.624Z,56.30
2022-10-06T12:11:24.433Z,56.60
2022-10-06T12:20:01.355Z,56.70
2022-10-06T12:22:44.119Z,55.40
2022-10-06T12:25:25.108Z,56.60
2022-10-06T12:28:13.126Z,55.40
2022-10-06T12:31:18.118Z,54.80
2022-10-06T12:33:47.439Z,56.50
2022-10-06T12:36:21.853Z,55.80
2022-10-06T12:39:02.246Z,55.60
2022-10-06T12:42:01.214Z,55.80
2022-10-06T12:44:40.345Z,54.60
2022-10-06T12:47:15.694Z,54.90
2022-10-06T12:49:58.508Z,55.00
2022-10-06T12:52:38.116Z,55.50
2022-10-06T12:55:32.065Z,55.70
2022-10-06T12:57:59.440Z,55.20
2022-10-06T13:00:39.532Z,55.50
2022-10-06T13:03:13.582Z,55.00
2022-10-06T13:05:42.290Z,55.60
2022-10-06T13:08:30.851Z,55.30
2022-10-06T13:11:30.002Z,55.50
2022-10-06T13:14:07.820Z,54.10
2022-10-06T13:16:40.614Z,53.80
2022-10-06T13:19:35.504Z,54.30
2022-10-06T13:22:03.608Z,54.70
2022-10-06T13:24:31.026Z,54.00
2022-10-06T13:26:58.462Z,54.20
2022-10-06T13:29:26.199Z,55.20
2022-10-06T13:31:55.476Z,54.60
2022-10-06T13:34:34.766Z,54.00
2022-10-06T13:37:02.591Z,54.30
2022-10-06T13:39:32.816Z,53.00
2022-10-06T13:42:10.782Z,53.20
2022-10-06T13:44:56.808Z,54.30
2022-10-06T13:47:25.980Z,54.60
2022-10-06T13:49:59.435Z,53.30
2022-10-06T13:52:38.600Z,52.60
2022-10-06T13:55:27.318Z,52.80
2022-10-06T13:58:03.427Z,53.20
2022-10-06T14:00:48.716Z,53.80
2022-10-06T14:03:28.461Z,53.30
2022-10-06T14:06:11.087Z,53.80
2022-10-06T14:08:38.606Z,54.10
2022-10-06T14:11:08.359Z,52.50
2022-10-06T14:13:54.654Z,53.90
2022-10-06T14:16:24.771Z,53.90
2022-10-06T14:19:01.172Z,52.50
2022-10-06T14:21:41.587Z,52.80
2022-10-06T14:24:20.658Z,53.60
2022-10-06T14:26:49.763Z,53.00
2022-10-06T14:29:18.500Z,55.40
2022-10-06T14:31:46.627Z,56.60
2022-10-06T14:34:16.747Z,53.80
2022-10-06T14:36:47.302Z,56.30
2022-10-06T14:39:15.663Z,55.80
2022-10-06T14:41:43.293Z,55.00
2022-10-06T14:44:13.061Z,53.10
2022-10-06T14:46:42.462Z,51.80
2022-10-06T14:49:13.964Z,51.80
2022-10-06T14:51:43.158Z,54.40
2022-10-06T14:54:11.449Z,51.20
2022-10-06T14:56:40.182Z,55.00
2022-10-06T14:59:10.275Z,53.80
2022-10-06T15:01:40.779Z,52.60
2022-10-06T15:04:11.570Z,54.20
2022-10-06T15:06:58.361Z,54.70
2022-10-06T15:09:26.471Z,53.50
2022-10-06T15:11:54.398Z,53.50
2022-10-06T15:14:23.024Z,53.20
2022-10-06T15:16:51.090Z,53.30
2022-10-06T15:19:18.484Z,53.60
2022-10-06T15:21:45.883Z,54.10
2022-10-06T15:24:18.330Z,54.60
2022-10-06T15:27:05.310Z,52.20
2022-10-06T15:29:36.971Z,53.90
2022-10-06T15:32:09.942Z,54.90
2022-10-06T15:34:44.591Z,55.00
2022-10-06T15:37:19.261Z,53.20
2022-10-06T15:39:52.030Z,55.00
2022-10-06T15:42:32.203Z,53.60
2022-10-06T15:45:11.225Z,54.70
2022-10-06T15:47:39.797Z,53.80
2022-10-06T15:50:12.937Z,53.20
2022-10-06T15:52:48.637Z,54.00
2022-10-06T15:55:26.132Z,55.50
2022-10-06T15:58:00.205Z,55.50
2022-10-06T16:00:31.505Z,55.10
2022-10-06T16:03:02.617Z,56.50
2022-10-06T16:05:48.477Z,57.10
2022-10-06T16:08:20.848Z,56.40
2022-10-06T16:10:55.929Z,57.60
2022-10-06T16:13:28.427Z,55.00
2022-10-06T16:15:59.498Z,56.40
2022-10-06T16:18:41.167Z,56.40
2022-10-06T16:21:34.286Z,57.00
2022-10-06T16:24:09.767Z,57.30
2022-10-06T16:27:00.571Z,57.20
2022-10-06T16:29:37.308Z,57.50
2022-10-06T16:32:32.635Z,57.20
2022-10-06T16:35:09.346Z,57.80
2022-10-06T16:37:39.907Z,56.90
2022-10-06T16:40:12.257Z,58.10
2022-10-06T16:42:43.278Z,58.30
2022-10-06T16:45:21.482Z,58.80
2022-10-06T16:47:56.316Z,58.30
2022-10-06T16:50:24.684Z,59.40
2022-10-06T16:53:01.006Z,58.70
2022-10-06T16:55:32.773Z,58.80
2022-10-06T16:58:06.621Z,59.30
2022-10-06T17:00:38.696Z,59.50
2022-10-06T17:03:15.141Z,59.30
2022-10-06T17:05:47.441Z,59.70
2022-10-06T17:08:19.299Z,60.30
2022-10-06T17:10:58.777Z,61.00
2022-10-06T17:13:29.078Z,60.90
2022-10-06T17:16:06.225Z,61.70
2022-10-06T17:18:40.470Z,62.30
2022-10-06T17:21:46.054Z,62.20
2022-10-06T17:24:27.226Z,63.10
2022-10-06T17:26:55.982Z,63.20
2022-10-06T17:29:24.989Z,64.00
2022-10-06T17:32:00.543Z,64.20
2022-10-06T17:34:35.552Z,65.00
2022-10-06T17:37:09.208Z,65.40
2022-10-06T17:39:46.971Z,65.80
2022-10-06T17:42:17.978Z,65.80
2022-10-06T17:44:48.642Z,66.20
2022-10-06T17:47:21.195Z,66.90
2022-10-06T17:49:53.257Z,66.00
2022-10-06T17:52:30.643Z,67.00
2022-10-06T17:55:05.826Z,67.30
2022-10-06T17:57:36.546Z,67.40
2022-10-06T18:00:09.897Z,68.00
2022-10-06T18:02:47.328Z,67.80
2022-10-06T18:05:19.218Z,68.10
2022-10-06T18:07:51.862Z,68.60
2022-10-06T18:10:47.975Z,68.20
2022-10-06T18:13:21.153Z,68.40
2022-10-06T18:15:55.478Z,68.40
2022-10-06T18:18:26.832Z,68.60
2022-10-06T18:21:14.572Z,69.00
2022-10-06T18:23:54.789Z,68.40
2022-10-06T18:26:32.464Z,68.90
2022-10-06T18:29:06.453Z,69.20
2022-10-06T18:31:38.975Z,69.30
2022-10-06T18:37:08.658Z,69.70
2022-10-06T18:39:41.857Z,70.10
2022-10-06T18:42:14.682Z,69.90
2022-10-06T18:45:02.607Z,70.60
2022-10-06T18:47:52.549Z,71.00
2022-10-06T18:50:31.707Z,71.00
2022-10-06T19:15:06.825Z,72.60
2022-10-06T19:17:35.859Z,72.60
2022-10-06T19:20:06.797Z,72.50
2022-10-06T19:26:50.338Z,73.20
2022-10-06T19:29:23.557Z,73.40
2022-10-06T19:31:53.896Z,74.00
2022-10-06T19:34:27.818Z,74.30
2022-10-06T19:36:57.991Z,73.70
2022-10-06T19:39:28.587Z,74.20
2022-10-06T19:42:17.375Z,74.60
